createdAt,value
2018-07-26T00:00:18.267Z,45.92
2018-07-26T00:02:46.555Z,45.47
2018-07-26T00:05:14.601Z,45.42
2018-07-26T00:07:42.126Z,45.09
2018-07-26T00:10:09.629Z,45.36
2018-07-26T00:12:38.832Z,45.20
2018-07-26T00:15:09.048Z,45.67
2018-07-26T00:20:27.539Z,46.04
2018-07-26T00:22:55.413Z,46.22
2018-07-26T00:25:24.504Z,46.18
2018-07-26T00:27:52.548Z,46.55
2018-07-26T00:30:19.852Z,47.39
2018-07-26T00:32:47.254Z,48.08
2018-07-26T00:35:14.819Z,47.88
2018-07-26T00:37:42.721Z,48.45
2018-07-26T00:40:10.063Z,49.04
2018-07-26T00:42:38.961Z,49.55
2018-07-26T00:45:07.133Z,49.84
2018-07-26T00:47:34.579Z,49.44
2018-07-26T00:50:01.906Z,50.20
2018-07-26T00:52:29.297Z,50.33
2018-07-26T00:54:56.916Z,50.71
2018-07-26T00:57:24.420Z,51.10
2018-07-26T00:59:53.169Z,51.11
2018-07-26T01:02:20.685Z,51.42
2018-07-26T01:04:48.140Z,51.73
2018-07-26T01:07:15.731Z,51.95
2018-07-26T01:09:44.713Z,51.90
2018-07-26T01:12:12.155Z,52.49
2018-07-26T01:14:39.515Z,52.96
2018-07-26T01:17:06.960Z,52.86
2018-07-26T01:19:34.497Z,53.81
2018-07-26T01:22:02.546Z,54.20
2018-07-26T01:24:30.767Z,54.42
2018-07-26T01:26:58.467Z,54.95
2018-07-26T01:29:25.924Z,54.76
2018-07-26T01:31:54.076Z,54.93
2018-07-26T01:34:22.873Z,55.37
2018-07-26T01:36:50.676Z,55.79
2018-07-26T01:39:20.451Z,56.20
2018-07-26T01:41:48.291Z,56.11
2018-07-26T01:44:24.105Z,56.39
2018-07-26T01:46:52.327Z,56.36
2018-07-26T01:49:22.770Z,57.12
2018-07-26T01:51:50.668Z,57.90
2018-07-26T01:54:18.031Z,57.89
2018-07-26T01:56:45.519Z,58.15
2018-07-26T01:59:12.862Z,58.16
2018-07-26T02:01:40.268Z,58.34
2018-07-26T02:04:08.229Z,58.33
2018-07-26T02:06:35.693Z,58.40
2018-07-26T02:09:07.422Z,58.72
2018-07-26T02:11:35.179Z,59.28
2018-07-26T02:14:03.010Z,59.54
2018-07-26T02:16:30.603Z,59.76
2018-07-26T02:18:58.213Z,60.19
2018-07-26T02:21:25.745Z,60.03
2018-07-26T02:23:53.902Z,59.94
2018-07-26T02:26:22.098Z,60.00
2018-07-26T02:28:50.014Z,60.27
2018-07-26T02:31:17.601Z,60.11
2018-07-26T02:33:45.821Z,60.42
2018-07-26T02:36:13.986Z,60.31
2018-07-26T02:38:42.496Z,60.92
2018-07-26T02:41:10.153Z,61.34
2018-07-26T02:43:37.798Z,61.28
2018-07-26T02:46:07.728Z,61.73
2018-07-26T02:48:35.469Z,61.93
2018-07-26T02:51:03.020Z,62.67
2018-07-26T02:53:30.933Z,62.95
2018-07-26T02:56:00.188Z,63.01
2018-07-26T02:58:28.643Z,63.37
2018-07-26T03:00:58.830Z,63.44
2018-07-26T03:03:28.041Z,63.56
2018-07-26T03:05:56.569Z,63.76
2018-07-26T03:08:25.291Z,63.66
2018-07-26T03:10:52.749Z,64.10
2018-07-26T03:13:20.272Z,64.21
2018-07-26T03:15:49.243Z,64.00
2018-07-26T03:18:16.793Z,64.45
2018-07-26T03:20:47.994Z,64.28
2018-07-26T03:23:18.721Z,64.02
2018-07-26T03:25:47.912Z,64.09
2018-07-26T03:28:15.439Z,63.96
2018-07-26T03:30:43.467Z,64.03
2018-07-26T03:33:11.891Z,64.30
2018-07-26T03:35:40.031Z,64.19
2018-07-26T03:38:08.571Z,64.56
2018-07-26T03:40:42.372Z,64.52
2018-07-26T03:43:11.337Z,64.60
2018-07-26T03:45:39.664Z,64.63
2018-07-26T03:48:09.894Z,64.27
2018-07-26T03:50:39.129Z,64.45
2018-07-26T03:53:07.633Z,64.52
2018-07-26T03:55:36.396Z,64.75
2018-07-26T03:58:18.905Z,64.38
2018-07-26T04:00:46.804Z,64.28
2018-07-26T04:03:14.363Z,64.23
2018-07-26T04:05:42.071Z,64.26
2018-07-26T04:08:12.224Z,63.59
2018-07-26T04:10:41.118Z,64.11
2018-07-26T04:13:15.370Z,63.99
2018-07-26T04:15:42.848Z,63.74
2018-07-26T04:18:11.643Z,64.15
2018-07-26T04:20:42.315Z,64.17
2018-07-26T04:23:11.727Z,64.00
2018-07-26T04:25:40.336Z,64.15
2018-07-26T04:28:09.915Z,64.45
2018-07-26T04:30:38.626Z,64.08
2018-07-26T04:33:08.430Z,64.08
2018-07-26T04:35:35.969Z,63.70
2018-07-26T04:38:03.763Z,63.77
2018-07-26T04:40:31.856Z,63.07
2018-07-26T04:42:59.237Z,62.85
2018-07-26T04:45:26.656Z,62.53
2018-07-26T04:47:54.238Z,62.10
2018-07-26T04:50:21.682Z,61.61
2018-07-26T04:52:49.720Z,60.53
2018-07-26T04:55:17.342Z,59.38
2018-07-26T04:57:44.835Z,58.29
2018-07-26T05:00:12.234Z,57.72
2018-07-26T05:02:39.558Z,57.99
2018-07-26T05:05:07.660Z,57.32
2018-07-26T05:07:35.027Z,56.89
2018-07-26T05:10:02.586Z,56.62
2018-07-26T05:12:29.896Z,55.80
2018-07-26T05:14:57.379Z,54.94
2018-07-26T05:17:24.801Z,54.21
2018-07-26T05:19:52.222Z,53.55
2018-07-26T05:22:19.781Z,52.06
2018-07-26T05:24:47.176Z,51.15
2018-07-26T05:27:14.604Z,50.79
2018-07-26T05:29:43.231Z,50.61
2018-07-26T05:32:11.259Z,49.79
2018-07-26T05:34:39.460Z,49.55
2018-07-26T05:37:06.866Z,48.21
2018-07-26T05:39:34.264Z,48.39
2018-07-26T05:42:01.644Z,47.56
2018-07-26T05:44:29.623Z,47.70
2018-07-26T05:46:57.334Z,46.50
2018-07-26T05:49:24.857Z,45.32
2018-07-26T05:51:52.260Z,44.80
2018-07-26T05:54:19.906Z,44.13
2018-07-26T05:56:48.493Z,43.23
2018-07-26T05:59:16.074Z,41.86
2018-07-26T06:01:43.431Z,41.34
2018-07-26T06:04:10.795Z,40.31
2018-07-26T06:06:38.390Z,40.46
2018-07-26T06:09:10.674Z,39.63
2018-07-26T06:11:38.160Z,38.67
2018-07-26T06:14:05.965Z,38.41
2018-07-26T06:16:33.384Z,37.59
2018-07-26T06:19:00.738Z,37.05
2018-07-26T06:21:28.639Z,37.29
2018-07-26T06:23:56.030Z,37.54
2018-07-26T06:26:23.439Z,36.88
2018-07-26T06:28:51.703Z,37.72
2018-07-26T06:31:19.098Z,36.76
2018-07-26T06:33:46.531Z,36.50
2018-07-26T06:36:14.053Z,36.10
2018-07-26T06:38:41.410Z,35.45
2018-07-26T06:41:09.290Z,34.83
2018-07-26T06:43:36.737Z,34.76
2018-07-26T06:46:04.262Z,34.22
2018-07-26T06:48:32.774Z,34.79
2018-07-26T06:51:00.233Z,34.21
2018-07-26T06:53:28.638Z,35.22
2018-07-26T06:55:57.298Z,35.94
2018-07-26T06:58:25.410Z,35.42
2018-07-26T07:00:55.603Z,35.23
2018-07-26T07:03:22.958Z,35.08
2018-07-26T07:05:50.359Z,35.02
2018-07-26T07:08:24.481Z,34.63
2018-07-26T07:10:51.998Z,34.35
2018-07-26T07:13:19.638Z,35.16
2018-07-26T07:15:47.272Z,34.59
2018-07-26T07:18:15.887Z,34.61
2018-07-26T07:20:44.031Z,35.21
2018-07-26T07:23:12.613Z,34.83
2018-07-26T07:25:40.722Z,34.79
2018-07-26T07:28:08.211Z,34.62
2018-07-26T07:30:35.737Z,34.77
2018-07-26T07:33:04.119Z,34.40
2018-07-26T07:35:32.279Z,32.99
2018-07-26T07:38:00.893Z,33.22
2018-07-26T07:40:29.081Z,33.57
2018-07-26T07:42:56.389Z,33.65
2018-07-26T07:45:23.843Z,33.83
2018-07-26T07:47:51.275Z,34.05
2018-07-26T07:50:18.714Z,33.39
2018-07-26T07:52:46.044Z,33.05
2018-07-26T07:55:13.667Z,31.96
2018-07-26T07:57:40.995Z,31.85
2018-07-26T08:00:08.974Z,32.31
2018-07-26T08:02:37.099Z,32.42
2018-07-26T08:05:04.761Z,32.25
2018-07-26T08:07:32.378Z,31.36
2018-07-26T08:09:59.864Z,30.60
2018-07-26T08:12:28.050Z,30.33
2018-07-26T08:14:59.168Z,30.75
2018-07-26T08:17:27.265Z,29.98
2018-07-26T08:19:54.879Z,29.58
2018-07-26T08:22:22.169Z,29.26
2018-07-26T08:24:49.448Z,28.87
2018-07-26T08:27:16.817Z,27.98
2018-07-26T08:29:44.049Z,27.90
2018-07-26T08:32:11.335Z,27.91
2018-07-26T08:34:38.617Z,28.17
2018-07-26T08:37:06.001Z,29.43
2018-07-26T08:39:33.311Z,28.92
2018-07-26T08:42:00.623Z,29.16
2018-07-26T08:44:27.975Z,28.31
2018-07-26T08:46:55.499Z,28.41
2018-07-26T08:49:23.062Z,27.82
2018-07-26T08:52:00.159Z,27.91
2018-07-26T08:54:27.663Z,28.35
2018-07-26T08:56:55.375Z,27.83
2018-07-26T08:59:22.848Z,28.83
2018-07-26T09:01:50.366Z,29.86
2018-07-26T09:04:17.742Z,30.66
2018-07-26T09:06:45.117Z,30.51
2018-07-26T09:09:13.511Z,30.65
2018-07-26T09:11:41.359Z,29.26
2018-07-26T09:14:09.306Z,30.16
2018-07-26T09:16:36.755Z,30.12
2018-07-26T09:19:04.355Z,28.61
2018-07-26T09:21:32.632Z,27.22
2018-07-26T09:24:00.862Z,26.46
2018-07-26T09:26:29.105Z,26.55
2018-07-26T09:28:56.610Z,26.86
2018-07-26T09:31:24.243Z,25.07
2018-07-26T09:33:51.788Z,25.40
2018-07-26T09:36:20.113Z,26.39
2018-07-26T09:38:48.158Z,26.39
2018-07-26T09:41:15.494Z,25.99
2018-07-26T09:43:43.435Z,24.07
2018-07-26T09:46:11.262Z,25.86
2018-07-26T09:48:40.617Z,24.78
2018-07-26T09:51:08.037Z,24.48
2018-07-26T09:53:35.440Z,25.32
2018-07-26T09:56:02.829Z,23.76
2018-07-26T09:58:30.108Z,23.88
2018-07-26T10:01:03.286Z,24.59
2018-07-26T10:03:31.026Z,24.66
2018-07-26T10:05:58.473Z,23.54
2018-07-26T10:08:25.917Z,23.36
2018-07-26T10:10:53.647Z,23.83
2018-07-26T10:13:21.138Z,24.05
2018-07-26T10:15:48.546Z,22.76
2018-07-26T10:18:16.037Z,23.02
2018-07-26T10:20:43.698Z,23.21
2018-07-26T10:23:11.257Z,24.21
2018-07-26T10:25:38.657Z,23.90
2018-07-26T10:28:07.163Z,24.01
2018-07-26T10:30:34.520Z,24.10
2018-07-26T10:33:02.093Z,25.17
2018-07-26T10:35:29.737Z,24.90
2018-07-26T10:37:58.599Z,23.43
2018-07-26T10:40:26.232Z,22.75
2018-07-26T10:42:53.829Z,22.15
2018-07-26T10:45:21.255Z,23.05
2018-07-26T10:47:48.683Z,22.64
2018-07-26T10:50:16.219Z,22.29
2018-07-26T10:52:43.604Z,20.80
2018-07-26T10:55:11.031Z,19.95
2018-07-26T10:57:38.884Z,21.23
2018-07-26T11:00:08.018Z,21.50
2018-07-26T11:02:35.858Z,21.50
2018-07-26T11:05:03.876Z,20.87
2018-07-26T11:07:31.390Z,20.50
2018-07-26T11:09:58.607Z,20.43
2018-07-26T11:12:25.880Z,20.29
2018-07-26T11:14:54.418Z,20.38
2018-07-26T11:17:21.742Z,19.77
2018-07-26T11:19:49.031Z,20.96
2018-07-26T11:22:16.297Z,18.96
2018-07-26T11:24:49.123Z,19.11
2018-07-26T11:27:16.449Z,20.83
2018-07-26T11:29:43.766Z,19.94
2018-07-26T11:32:12.795Z,20.04
2018-07-26T11:34:40.094Z,21.26
2018-07-26T11:37:07.542Z,20.77
2018-07-26T11:39:34.826Z,19.96
2018-07-26T11:42:02.154Z,19.55
2018-07-26T11:44:29.450Z,19.69
2018-07-26T11:46:56.703Z,19.77
2018-07-26T11:49:23.960Z,19.50
2018-07-26T11:51:51.207Z,19.47
2018-07-26T11:54:18.502Z,20.21
2018-07-26T11:56:45.952Z,20.83
2018-07-26T11:59:13.274Z,21.30
2018-07-26T12:01:40.606Z,21.14
2018-07-26T12:04:07.850Z,20.88
2018-07-26T12:06:35.146Z,20.32
2018-07-26T12:09:02.489Z,20.49
2018-07-26T12:11:29.708Z,20.78
2018-07-26T12:13:56.998Z,22.03
2018-07-26T12:16:24.250Z,21.28
2018-07-26T12:18:51.529Z,20.47
2018-07-26T12:21:18.800Z,20.37
2018-07-26T12:23:46.090Z,21.16
2018-07-26T12:26:13.381Z,21.55
2018-07-26T12:28:40.663Z,21.61
2018-07-26T12:31:08.510Z,21.66
2018-07-26T12:33:37.691Z,21.45
2018-07-26T12:36:12.400Z,21.25
2018-07-26T12:38:39.665Z,20.75
2018-07-26T12:41:07.043Z,20.82
2018-07-26T12:43:34.361Z,20.63
2018-07-26T12:46:01.697Z,19.63
2018-07-26T12:48:28.947Z,18.37
2018-07-26T12:50:56.184Z,18.74
2018-07-26T12:53:23.482Z,19.81
2018-07-26T12:55:50.723Z,19.45
2018-07-26T12:58:18.009Z,19.47
2018-07-26T13:00:45.326Z,19.09
2018-07-26T13:03:12.564Z,18.66
2018-07-26T13:05:43.023Z,18.57
2018-07-26T13:08:10.263Z,18.85
2018-07-26T13:10:37.540Z,18.39
2018-07-26T13:13:04.899Z,18.75
2018-07-26T13:15:32.352Z,17.32
2018-07-26T13:18:06.946Z,18.21
2018-07-26T13:20:34.309Z,18.29
2018-07-26T13:23:01.548Z,18.23
2018-07-26T13:25:28.890Z,18.05
2018-07-26T13:27:56.235Z,18.63
2018-07-26T13:30:23.492Z,17.86
2018-07-26T13:32:50.770Z,16.92
2018-07-26T13:35:18.085Z,16.50
2018-07-26T13:37:45.316Z,18.12
2018-07-26T13:40:12.612Z,17.78
2018-07-26T13:42:39.867Z,17.45
2018-07-26T13:45:08.002Z,17.57
2018-07-26T13:47:37.470Z,17.73
2018-07-26T13:50:04.932Z,17.71
2018-07-26T13:52:32.202Z,16.75
2018-07-26T13:54:59.488Z,17.01
2018-07-26T13:57:27.066Z,17.18
2018-07-26T13:59:54.377Z,15.67
2018-07-26T14:02:21.626Z,16.38
2018-07-26T14:04:49.046Z,16.54
2018-07-26T14:07:23.023Z,15.38
2018-07-26T14:09:51.847Z,15.88
2018-07-26T14:12:19.171Z,14.68
2018-07-26T14:14:46.502Z,14.81
2018-07-26T14:17:13.927Z,14.23
2018-07-26T14:19:41.271Z,13.70
2018-07-26T14:22:08.596Z,13.55
2018-07-26T14:24:36.213Z,14.51
2018-07-26T14:27:03.995Z,14.49
2018-07-26T14:29:31.728Z,14.60
2018-07-26T14:31:59.078Z,14.82
2018-07-26T14:34:26.535Z,15.21
2018-07-26T14:36:54.143Z,14.56
2018-07-26T14:39:21.577Z,13.11
2018-07-26T14:41:48.867Z,14.51
2018-07-26T14:44:16.118Z,14.55
2018-07-26T14:46:43.397Z,13.72
2018-07-26T14:49:10.723Z,14.46
2018-07-26T14:51:38.127Z,15.30
2018-07-26T14:54:05.396Z,15.50
2018-07-26T14:56:32.825Z,15.48
2018-07-26T14:59:00.335Z,15.65
2018-07-26T15:01:27.750Z,16.02
2018-07-26T15:03:55.004Z,16.18
2018-07-26T15:06:22.290Z,16.06
2018-07-26T15:08:49.577Z,16.24
2018-07-26T15:11:16.901Z,16.49
2018-07-26T15:13:44.151Z,16.41
2018-07-26T15:16:11.590Z,16.29
2018-07-26T15:18:38.816Z,16.51
2018-07-26T15:21:06.161Z,16.71
2018-07-26T15:23:33.430Z,16.76
2018-07-26T15:26:00.703Z,17.42
2018-07-26T15:28:27.958Z,16.88
2018-07-26T15:30:55.246Z,17.05
2018-07-26T15:33:22.555Z,17.29
2018-07-26T15:35:49.827Z,17.80
2018-07-26T15:38:17.097Z,17.89
2018-07-26T15:40:44.372Z,18.98
2018-07-26T15:43:11.655Z,18.62
2018-07-26T15:45:39.038Z,18.33
2018-07-26T15:48:06.642Z,19.01
2018-07-26T15:50:33.945Z,18.51
2018-07-26T15:53:01.296Z,18.91
2018-07-26T15:55:28.660Z,18.04
2018-07-26T15:57:55.914Z,18.46
2018-07-26T16:00:23.203Z,18.03
2018-07-26T16:02:50.440Z,18.22
2018-07-26T16:05:17.725Z,18.47
2018-07-26T16:07:44.970Z,18.43
2018-07-26T16:10:12.224Z,18.77
2018-07-26T16:12:39.522Z,18.56
2018-07-26T16:15:08.542Z,18.75
2018-07-26T16:17:37.925Z,18.55
2018-07-26T16:20:12.483Z,19.08
2018-07-26T16:22:39.780Z,19.22
2018-07-26T16:25:08.578Z,19.35
2018-07-26T16:27:35.859Z,19.35
2018-07-26T16:30:04.094Z,19.87
2018-07-26T16:32:31.378Z,19.83
2018-07-26T16:34:58.663Z,20.14
2018-07-26T16:37:26.307Z,19.75
2018-07-26T16:39:53.601Z,20.50
2018-07-26T16:42:20.832Z,19.95
2018-07-26T16:44:48.065Z,20.52
2018-07-26T16:47:15.569Z,20.18
2018-07-26T16:49:42.832Z,19.92
2018-07-26T16:52:10.106Z,19.73
2018-07-26T16:54:37.435Z,19.36
2018-07-26T16:57:11.574Z,19.39
2018-07-26T16:59:38.868Z,20.26
2018-07-26T17:02:06.181Z,19.99
2018-07-26T17:04:33.454Z,20.29
2018-07-26T17:07:00.856Z,20.46
2018-07-26T17:09:28.264Z,19.87
2018-07-26T17:11:55.549Z,19.60
2018-07-26T17:14:22.800Z,19.50
2018-07-26T17:16:50.172Z,19.51
2018-07-26T17:22:29.417Z,19.48
2018-07-26T17:24:59.932Z,19.93
2018-07-26T17:27:32.116Z,19.86
2018-07-26T17:29:59.412Z,20.22
2018-07-26T17:32:26.765Z,20.16
2018-07-26T17:34:53.982Z,20.11
2018-07-26T17:37:21.575Z,20.12
2018-07-26T17:39:48.846Z,19.44
2018-07-26T17:42:16.288Z,19.39
2018-07-26T17:44:43.543Z,19.62
2018-07-26T17:47:11.218Z,19.96
2018-07-26T17:49:38.782Z,19.77
2018-07-26T17:52:06.206Z,20.29
2018-07-26T17:54:33.635Z,20.32
2018-07-26T17:57:01.348Z,20.81
2018-07-26T17:59:28.974Z,20.84
2018-07-26T18:01:57.238Z,21.14
2018-07-26T18:04:24.676Z,21.25
2018-07-26T18:06:52.486Z,21.13
2018-07-26T18:09:19.902Z,21.54
2018-07-26T18:11:47.280Z,21.92
2018-07-26T18:14:14.682Z,21.89
2018-07-26T18:16:42.003Z,22.23
2018-07-26T18:19:09.334Z,22.52
2018-07-26T18:21:37.028Z,22.51
2018-07-26T18:24:04.883Z,22.87
2018-07-26T18:26:33.404Z,23.03
2018-07-26T18:29:00.718Z,23.16
2018-07-26T18:31:28.366Z,23.14
2018-07-26T18:33:55.872Z,23.69
2018-07-26T18:36:23.241Z,24.09
2018-07-26T18:38:50.795Z,24.82
2018-07-26T18:41:18.166Z,25.16
2018-07-26T18:43:45.500Z,25.24
2018-07-26T18:46:12.838Z,25.49
2018-07-26T18:48:40.338Z,26.30
2018-07-26T18:51:07.908Z,26.65
2018-07-26T18:53:35.351Z,26.76
2018-07-26T18:56:02.800Z,27.22
2018-07-26T18:58:30.269Z,26.87
2018-07-26T19:00:57.674Z,27.77
2018-07-26T19:03:29.045Z,27.96
2018-07-26T19:05:56.402Z,28.64
2018-07-26T19:08:23.834Z,28.84
2018-07-26T19:10:51.198Z,28.56
2018-07-26T19:13:18.629Z,29.23
2018-07-26T19:15:45.936Z,28.82
2018-07-26T19:18:13.444Z,29.03
2018-07-26T19:20:41.090Z,29.22
2018-07-26T19:23:08.572Z,29.63
2018-07-26T19:25:35.878Z,29.69
2018-07-26T19:28:03.285Z,29.54
2018-07-26T19:30:30.744Z,30.03
2018-07-26T19:32:58.336Z,29.82
2018-07-26T19:35:25.711Z,30.22
2018-07-26T19:37:53.039Z,30.76
2018-07-26T19:40:20.436Z,30.30
2018-07-26T19:42:47.879Z,30.66
2018-07-26T19:45:15.304Z,30.91
2018-07-26T19:47:42.627Z,31.28
2018-07-26T19:50:10.143Z,31.40
2018-07-26T19:52:37.509Z,31.53
2018-07-26T19:55:07.283Z,32.00
2018-07-26T19:57:35.148Z,32.06
2018-07-26T20:00:02.555Z,32.06
2018-07-26T20:02:29.872Z,32.43
2018-07-26T20:04:57.260Z,32.68
2018-07-26T20:07:25.298Z,32.30
2018-07-26T20:09:52.676Z,32.62
2018-07-26T20:12:20.046Z,32.32
2018-07-26T20:14:47.496Z,32.44
2018-07-26T20:17:14.835Z,33.05
2018-07-26T20:19:42.139Z,33.00
2018-07-26T20:22:09.506Z,33.14
2018-07-26T20:24:36.838Z,33.20
2018-07-26T20:27:04.654Z,33.16
2018-07-26T20:29:31.993Z,33.28
2018-07-26T20:31:59.479Z,34.19
2018-07-26T20:34:26.744Z,34.43
2018-07-26T20:36:55.553Z,34.84
2018-07-26T20:39:22.875Z,34.96
2018-07-26T20:41:50.130Z,35.31
2018-07-26T20:44:19.286Z,35.12
2018-07-26T20:46:46.514Z,34.94
2018-07-26T20:49:13.838Z,35.08
2018-07-26T20:51:41.680Z,35.12
2018-07-26T20:54:08.970Z,35.01
2018-07-26T20:56:36.214Z,35.46
2018-07-26T20:59:03.592Z,35.35
2018-07-26T21:01:30.822Z,35.17
2018-07-26T21:03:58.147Z,35.49
2018-07-26T21:06:25.416Z,35.56
2018-07-26T21:08:52.792Z,35.95
2018-07-26T21:11:20.066Z,35.51
2018-07-26T21:13:47.363Z,35.94
2018-07-26T21:16:14.662Z,35.87
2018-07-26T21:18:42.484Z,35.72
2018-07-26T21:21:09.826Z,36.46
2018-07-26T21:23:37.634Z,36.24
2018-07-26T21:26:05.035Z,36.82
2018-07-26T21:28:32.639Z,36.64
2018-07-26T21:31:17.474Z,36.81
2018-07-26T21:33:50.438Z,36.83
2018-07-26T21:36:18.461Z,37.28
2018-07-26T21:38:45.738Z,37.73
2018-07-26T21:41:13.290Z,37.54
2018-07-26T21:43:40.543Z,37.63
2018-07-26T21:46:07.814Z,37.75
2018-07-26T21:48:35.053Z,37.38
2018-07-26T21:51:02.365Z,37.85
2018-07-26T21:53:29.626Z,37.88
2018-07-26T21:55:56.896Z,38.26
2018-07-26T21:58:24.123Z,38.66
2018-07-26T22:00:56.714Z,38.18
2018-07-26T22:03:24.259Z,38.76
2018-07-26T22:05:51.718Z,38.96
2018-07-26T22:08:19.117Z,38.80
2018-07-26T22:10:47.438Z,38.95
2018-07-26T22:13:14.695Z,39.01
2018-07-26T22:15:41.951Z,39.27
2018-07-26T22:18:09.224Z,39.15
2018-07-26T22:20:36.514Z,39.26
2018-07-26T22:23:03.794Z,39.42
2018-07-26T22:25:31.125Z,39.25
2018-07-26T22:27:58.349Z,39.73
2018-07-26T22:30:25.650Z,39.22
2018-07-26T22:32:52.983Z,39.63
2018-07-26T22:35:20.258Z,39.72
2018-07-26T22:37:47.511Z,39.61
2018-07-26T22:40:14.814Z,39.90
2018-07-26T22:42:42.063Z,39.77
2018-07-26T22:45:09.450Z,40.24
2018-07-26T22:47:37.096Z,40.24
2018-07-26T22:50:04.854Z,40.39
2018-07-26T22:52:32.153Z,40.33
2018-07-26T22:54:59.419Z,40.82
2018-07-26T22:57:26.931Z,40.66
2018-07-26T22:59:54.463Z,40.74
2018-07-26T23:02:21.768Z,40.46
2018-07-26T23:04:49.014Z,40.23
2018-07-26T23:07:16.280Z,40.61
2018-07-26T23:09:43.622Z,40.85
2018-07-26T23:12:10.938Z,41.30
2018-07-26T23:14:38.218Z,41.31
2018-07-26T23:17:05.695Z,41.26
2018-07-26T23:19:32.974Z,41.09
2018-07-26T23:22:00.254Z,41.63
2018-07-26T23:24:27.514Z,43.44
2018-07-26T23:26:54.815Z,44.39
2018-07-26T23:29:22.109Z,45.23
2018-07-26T23:31:49.402Z,46.23
2018-07-26T23:34:16.848Z,46.50
2018-07-26T23:36:44.114Z,47.25
2018-07-26T23:39:12.449Z,47.69
2018-07-26T23:41:39.753Z,48.58
2018-07-26T23:44:07.445Z,48.78
2018-07-26T23:46:34.742Z,48.79
2018-07-26T23:49:01.992Z,49.07
2018-07-26T23:51:29.237Z,49.12
2018-07-26T23:53:56.848Z,48.94
2018-07-26T23:56:24.160Z,48.67
2018-07-26T23:58:51.743Z,48.62
